sensor_id;sensor_type;location;lat;lon;timestamp;temperature;humidity
66610;DHT22;53468;48.276;14.416;2023-05-24T07:12:03;16.20;99.90
66610;DHT22;53468;48.276;14.416;2023-05-24T07:23:29;16.50;99.90
66610;DHT22;53468;48.276;14.416;2023-05-24T07:35:29;16.70;99.90
66610;DHT22;53468;48.276;14.416;2023-05-24T07:40:50;17.10;99.90
66610;DHT22;53468;48.276;14.416;2023-05-24T07:46:41;17.10;99.90
66610;DHT22;53468;48.276;14.416;2023-05-24T08:04:33;17.40;99.90
66610;DHT22;53468;48.276;14.416;2023-05-24T08:09:35;17.90;99.90
66610;DHT22;53468;48.276;14.416;2023-05-24T08:14:39;18.60;99.90
66610;DHT22;53468;48.276;14.416;2023-05-24T08:20:09;19.10;99.90
66610;DHT22;53468;48.276;14.416;2023-05-24T08:25:27;19.60;99.90
66610;DHT22;53468;48.276;14.416;2023-05-24T08:30:36;20.10;99.90
66610;DHT22;53468;48.276;14.416;2023-05-24T08:35:43;20.30;99.90
66610;DHT22;53468;48.276;14.416;2023-05-24T08:41:09;20.80;99.90
66610;DHT22;53468;48.276;14.416;2023-05-24T08:46:29;21.10;99.90
66610;DHT22;53468;48.276;14.416;2023-05-24T08:51:42;21.00;99.90
66610;DHT22;53468;48.276;14.416;2023-05-24T08:56:48;20.40;99.90
66610;DHT22;53468;48.276;14.416;2023-05-24T09:01:52;19.70;99.90
66610;DHT22;53468;48.276;14.416;2023-05-24T09:07:03;19.10;99.90
66610;DHT22;53468;48.276;14.416;2023-05-24T09:12:15;19.50;99.90
66610;DHT22;53468;48.276;14.416;2023-05-24T09:17:24;19.90;99.90
66610;DHT22;53468;48.276;14.416;2023-05-24T09:22:53;19.90;99.90
66610;DHT22;53468;48.276;14.416;2023-05-24T09:27:57;19.90;99.90
66610;DHT22;53468;48.276;14.416;2023-05-24T09:33:00;20.30;99.90
66610;DHT22;53468;48.276;14.416;2023-05-24T09:38:14;20.40;99.90
66610;DHT22;53468;48.276;14.416;2023-05-24T09:43:34;20.70;99.90
66610;DHT22;53468;48.276;14.416;2023-05-24T09:48:58;21.10;99.90
66610;DHT22;53468;48.276;14.416;2023-05-24T09:54:06;21.70;99.90
66610;DHT22;53468;48.276;14.416;2023-05-24T09:59:14;21.80;99.90
66610;DHT22;53468;48.276;14.416;2023-05-24T10:04:36;21.80;99.90
66610;DHT22;53468;48.276;14.416;2023-05-24T10:09:40;22.50;99.90
66610;DHT22;53468;48.276;14.416;2023-05-24T10:14:43;22.00;99.90
66610;DHT22;53468;48.276;14.416;2023-05-24T10:19:45;21.90;99.90
66610;DHT22;53468;48.276;14.416;2023-05-24T10:24:52;21.70;99.90
66610;DHT22;53468;48.276;14.416;2023-05-24T10:30:08;21.60;99.90
66610;DHT22;53468;48.276;14.416;2023-05-24T10:35:14;21.30;99.90
66610;DHT22;53468;48.276;14.416;2023-05-24T10:40:31;20.50;99.90
66610;DHT22;53468;48.276;14.416;2023-05-24T10:46:00;20.30;99.90
66610;DHT22;53468;48.276;14.416;2023-05-24T10:52:01;20.40;99.90
66610;DHT22;53468;48.276;14.416;2023-05-24T10:57:52;20.60;99.90
66610;DHT22;53468;48.276;14.416;2023-05-24T11:03:42;20.60;99.90
66610;DHT22;53468;48.276;14.416;2023-05-24T11:09:41;20.70;99.90
66610;DHT22;53468;48.276;14.416;2023-05-24T11:27:51;20.30;99.90
66610;DHT22;53468;48.276;14.416;2023-05-24T11:33:19;20.50;99.90
66610;DHT22;53468;48.276;14.416;2023-05-24T11:39:36;20.80;99.90
66610;DHT22;53468;48.276;14.416;2023-05-24T11:51:01;21.90;99.90
66610;DHT22;53468;48.276;14.416;2023-05-24T11:56:08;22.10;99.90
66610;DHT22;53468;48.276;14.416;2023-05-24T12:01:22;22.60;99.90
66610;DHT22;53468;48.276;14.416;2023-05-24T12:06:36;22.60;99.90
66610;DHT22;53468;48.276;14.416;2023-05-24T12:11:42;22.50;99.90
66610;DHT22;53468;48.276;14.416;2023-05-24T12:16:45;22.60;99.90
66610;DHT22;53468;48.276;14.416;2023-05-24T12:21:49;22.70;99.90
66610;DHT22;53468;48.276;14.416;2023-05-24T12:26:58;22.80;99.90
66610;DHT22;53468;48.276;14.416;2023-05-24T12:32:01;22.90;99.90
66610;DHT22;53468;48.276;14.416;2023-05-24T12:37:18;22.90;99.90
66610;DHT22;53468;48.276;14.416;2023-05-24T12:43:06;22.90;99.90
66610;DHT22;53468;48.276;14.416;2023-05-24T12:48:08;22.80;99.90
66610;DHT22;53468;48.276;14.416;2023-05-24T12:53:11;23.20;99.70
66610;DHT22;53468;48.276;14.416;2023-05-24T12:58:13;23.40;99.90
66610;DHT22;53468;48.276;14.416;2023-05-24T13:03:18;23.60;99.20
66610;DHT22;53468;48.276;14.416;2023-05-24T13:08:22;23.80;99.10
66610;DHT22;53468;48.276;14.416;2023-05-24T13:13:24;23.30;96.80
66610;DHT22;53468;48.276;14.416;2023-05-24T13:18:28;23.30;97.10
66610;DHT22;53468;48.276;14.416;2023-05-24T13:23:32;23.40;98.00
66610;DHT22;53468;48.276;14.416;2023-05-24T13:28:35;23.40;95.30
66610;DHT22;53468;48.276;14.416;2023-05-24T13:33:38;23.50;93.70
66610;DHT22;53468;48.276;14.416;2023-05-24T13:38:41;23.80;95.50
66610;DHT22;53468;48.276;14.416;2023-05-24T13:43:44;23.80;95.90
66610;DHT22;53468;48.276;14.416;2023-05-24T13:48:46;23.70;94.80
66610;DHT22;53468;48.276;14.416;2023-05-24T13:53:50;23.70;97.10
66610;DHT22;53468;48.276;14.416;2023-05-24T13:58:52;23.50;94.70
66610;DHT22;53468;48.276;14.416;2023-05-24T14:03:55;22.80;95.30
66610;DHT22;53468;48.276;14.416;2023-05-24T14:08:59;22.80;96.50
66610;DHT22;53468;48.276;14.416;2023-05-24T14:14:02;22.60;96.30
66610;DHT22;53468;48.276;14.416;2023-05-24T14:19:04;22.50;98.50
66610;DHT22;53468;48.276;14.416;2023-05-24T14:24:09;22.30;99.50
66610;DHT22;53468;48.276;14.416;2023-05-24T14:29:11;21.80;99.90
66610;DHT22;53468;48.276;14.416;2023-05-24T14:34:13;21.60;99.90
66610;DHT22;53468;48.276;14.416;2023-05-24T14:39:17;21.30;99.90
66610;DHT22;53468;48.276;14.416;2023-05-24T14:44:20;21.00;99.90
66610;DHT22;53468;48.276;14.416;2023-05-24T14:49:22;20.90;99.90
66610;DHT22;53468;48.276;14.416;2023-05-24T14:54:32;20.60;99.90
66610;DHT22;53468;48.276;14.416;2023-05-24T14:59:48;20.50;99.90
66610;DHT22;53468;48.276;14.416;2023-05-24T15:04:50;20.40;99.90
66610;DHT22;53468;48.276;14.416;2023-05-24T15:09:54;20.40;99.90
66610;DHT22;53468;48.276;14.416;2023-05-24T15:14:58;20.30;99.90
66610;DHT22;53468;48.276;14.416;2023-05-24T15:20:05;20.30;99.90
66610;DHT22;53468;48.276;14.416;2023-05-24T15:25:10;20.10;99.90
66610;DHT22;53468;48.276;14.416;2023-05-24T15:30:13;20.00;99.90
66610;DHT22;53468;48.276;14.416;2023-05-24T15:35:18;19.90;99.90
66610;DHT22;53468;48.276;14.416;2023-05-24T15:40:25;19.70;99.90
66610;DHT22;53468;48.276;14.416;2023-05-24T15:45:29;19.70;99.90
66610;DHT22;53468;48.276;14.416;2023-05-24T15:50:32;19.60;99.90
66610;DHT22;53468;48.276;14.416;2023-05-24T15:55:36;19.40;99.90
66610;DHT22;53468;48.276;14.416;2023-05-24T16:00:42;19.30;99.90
66610;DHT22;53468;48.276;14.416;2023-05-24T16:05:46;19.20;99.90
66610;DHT22;53468;48.276;14.416;2023-05-24T16:11:05;19.10;99.90
66610;DHT22;53468;48.276;14.416;2023-05-24T16:16:08;18.90;99.90
66610;DHT22;53468;48.276;14.416;2023-05-24T16:21:13;18.90;99.90
66610;DHT22;53468;48.276;14.416;2023-05-24T16:26:17;18.70;99.90
66610;DHT22;53468;48.276;14.416;2023-05-24T16:31:23;18.70;99.90
66610;DHT22;53468;48.276;14.416;2023-05-24T16:36:26;18.60;99.90
66610;DHT22;53468;48.276;14.416;2023-05-24T16:41:46;18.60;99.90
66610;DHT22;53468;48.276;14.416;2023-05-24T16:52:32;18.30;99.90
66610;DHT22;53468;48.276;14.416;2023-05-24T16:59:01;18.20;99.90
66610;DHT22;53468;48.276;14.416;2023-05-24T17:04:45;18.00;99.90
66610;DHT22;53468;48.276;14.416;2023-05-24T17:10:26;18.00;99.90
66610;DHT22;53468;48.276;14.416;2023-05-24T17:21:30;17.80;99.90
66610;DHT22;53468;48.276;14.416;2023-05-24T17:26:33;17.60;99.90
66610;DHT22;53468;48.276;14.416;2023-05-24T17:31:36;17.60;99.90
66610;DHT22;53468;48.276;14.416;2023-05-24T17:36:48;17.50;99.90
66610;DHT22;53468;48.276;14.416;2023-05-24T17:42:10;17.40;99.90
66610;DHT22;53468;48.276;14.416;2023-05-24T17:47:40;17.30;99.90
66610;DHT22;53468;48.276;14.416;2023-05-24T17:52:58;17.20;99.90
66610;DHT22;53468;48.276;14.416;2023-05-24T17:58:00;17.10;99.90
66610;DHT22;53468;48.276;14.416;2023-05-24T18:03:03;16.90;99.90
66610;DHT22;53468;48.276;14.416;2023-05-24T18:08:14;16.90;99.90
66610;DHT22;53468;48.276;14.416;2023-05-24T18:13:20;16.70;99.90
66610;DHT22;53468;48.276;14.416;2023-05-24T18:18:23;16.60;99.90
66610;DHT22;53468;48.276;14.416;2023-05-24T18:23:28;16.50;99.90
66610;DHT22;53468;48.276;14.416;2023-05-24T18:30:43;16.50;99.90
66610;DHT22;53468;48.276;14.416;2023-05-24T18:35:46;16.40;99.90
66610;DHT22;53468;48.276;14.416;2023-05-24T18:40:48;16.40;99.90
66610;DHT22;53468;48.276;14.416;2023-05-24T18:46:05;16.30;99.90
66610;DHT22;53468;48.276;14.416;2023-05-24T18:52:06;16.30;99.90
66610;DHT22;53468;48.276;14.416;2023-05-24T18:57:46;16.20;99.90
66610;DHT22;53468;48.276;14.416;2023-05-24T19:03:06;16.20;99.90
66610;DHT22;53468;48.276;14.416;2023-05-24T19:14:35;16.20;99.90
66610;DHT22;53468;48.276;14.416;2023-05-24T22:12:48;15.10;99.90
66610;DHT22;53468;48.276;14.416;2023-05-24T22:24:47;15.00;99.90
66610;DHT22;53468;48.276;14.416;2023-05-24T22:48:44;14.80;99.90
66610;DHT22;53468;48.276;14.416;2023-05-24T22:54:35;14.80;99.90
66610;DHT22;53468;48.276;14.416;2023-05-24T23:00:16;14.80;99.90
66610;DHT22;53468;48.276;14.416;2023-05-24T23:12:11;14.80;99.90
66610;DHT22;53468;48.276;14.416;2023-05-24T23:17:30;14.80;99.90
66610;DHT22;53468;48.276;14.416;2023-05-24T23:23:16;14.70;99.90
66610;DHT22;53468;48.276;14.416;2023-05-24T23:34:56;14.70;99.90
66610;DHT22;53468;48.276;14.416;2023-05-24T23:40:43;14.70;99.90
66610;DHT22;53468;48.276;14.416;2023-05-24T23:46:31;14.70;99.90
66610;DHT22;53468;48.276;14.416;2023-05-24T23:52:22;14.70;99.90
66610;DHT22;53468;48.276;14.416;2023-05-24T23:57:46;14.60;99.90
